Date,TemperatureHighF,TemperatureAvgF,TemperatureLowF,DewpointHighF,DewpointAvgF,DewpointLowF,HumidityHigh,HumidityAvg,HumidityLow,PressureMaxIn,PressureMinIn,WindSpeedMaxMPH,WindSpeedAvgMPH,GustSpeedMaxMPH,PrecipitationSumIn
2013-1-1,24.0,19.6,9.0,20.0,14.0,5.0,89,79,69,30.26,30.11,6,2,10,0.01
2013-1-2,24.0,13.8,4.0,15.0,7.9,1.0,89,78,62,30.30,30.20,7,3,14,0.01
2013-1-3,31.0,23.7,17.0,27.0,19.2,11.0,88,82,74,30.34,30.19,8,3,14,0.00
2013-1-4,32.0,21.2,11.0,25.0,16.8,7.0,88,83,75,30.35,30.28,7,4,14,0.01
2013-1-5,35.0,28.1,18.0,31.0,24.7,15.0,94,87,78,30.31,30.05,10,4,18,0.04
2013-1-6,35.0,27.7,16.0,32.0,23.6,14.0,93,84,77,30.39,29.98,8,4,16,0.02
2013-1-7,36.0,25.2,12.0,28.0,21.0,10.0,94,84,70,30.42,30.18,12,5,20,0.00
2013-1-8,42.0,33.8,25.0,34.0,28.4,22.0,90,81,68,30.23,30.11,11,5,18,0.00
2013-1-9,50.0,39.5,29.0,39.0,31.5,25.0,87,74,43,30.53,30.11,11,3,18,0.00
2013-1-10,46.0,34.8,27.0,44.0,30.7,23.0,97,85,69,30.53,29.90,8,4,16,0.35
2013-1-11,55.0,51.6,46.0,53.0,48.9,45.0,97,91,83,29.91,29.73,14,7,24,0.42
2013-1-12,56.0,45.9,32.0,51.0,41.9,30.0,93,86,73,29.95,29.79,11,5,21,0.43
2013-1-13,32.0,25.3,15.0,31.0,22.7,10.0,95,90,80,30.31,29.86,8,4,17,0.43
2013-1-14,24.0,17.3,14.0,18.0,13.1,10.0,92,83,73,30.51,30.31,5,2,13,0.01
2013-1-15,30.0,21.1,13.0,23.0,17.3,11.0,92,86,72,30.47,30.16,3,0,9,0.00
2013-1-16,37.0,28.0,18.0,29.0,22.8,16.0,93,82,59,30.16,29.94,7,2,14,0.01
2013-1-17,35.0,29.3,20.0,30.0,21.8,15.0,90,74,54,30.45,30.08,10,4,16,0.01
2013-1-18,40.0,30.0,19.0,30.0,23.3,16.0,90,77,61,30.49,30.05,17,8,29,0.00
2013-1-19,50.0,41.0,35.0,39.0,33.4,26.0,83,74,58,30.05,29.81,13,7,24,0.00
2013-1-20,36.0,21.1,16.0,26.0,10.8,7.0,72,64,56,30.32,29.97,13,5,27,0.00
2013-1-21,17.0,11.7,5.0,11.0,2.8,-4.0,84,68,49,30.36,30.21,11,4,24,0.00
2013-1-22,15.0,8.4,2.0,2.0,-0.7,-3.0,82,66,46,30.47,30.35,5,3,13,0.00
2013-1-23,25.0,17.8,12.0,16.0,7.7,2.0,83,64,52,30.41,30.15,8,2,15,0.00
2013-1-24,24.0,16.7,7.0,11.0,4.7,0.0,75,60,40,30.66,30.32,7,4,16,0.00
2013-1-25,33.0,24.4,19.0,22.0,16.1,8.0,87,71,56,30.40,30.03,8,3,14,0.00
2013-1-26,32.0,22.7,14.0,19.0,12.8,9.0,82,67,41,30.43,30.18,5,2,9,0.00
2013-1-27,40.0,30.1,22.0,39.0,24.8,17.0,96,81,65,30.42,29.98,13,5,19,0.23
2013-1-28,55.0,46.9,40.0,53.0,45.9,39.0,98,96,94,30.00,29.85,12,4,22,0.08
2013-1-29,60.0,56.8,52.0,58.0,55.3,51.0,98,94,88,29.85,29.39,14,9,26,0.95
2013-1-30,52.0,40.8,22.0,51.0,38.5,17.0,98,92,81,29.66,29.24,9,4,22,1.02
2013-1-31,21.0,15.3,6.0,16.0,8.8,0.0,82,75,71,30.24,29.85,10,6,20,0.00